createdAt,value
2022-12-19T00:02:41.053Z,10.80
2022-12-19T00:06:44.647Z,11.32
2022-12-19T00:10:57.916Z,18.88
2022-12-19T00:15:01.026Z,14.88
2022-12-19T00:19:05.216Z,11.55
2022-12-19T00:23:08.760Z,9.75
2022-12-19T00:27:13.225Z,9.85
2022-12-19T00:31:17.653Z,18.52
2022-12-19T00:35:22.584Z,13.63
2022-12-19T00:39:26.151Z,13.13
2022-12-19T00:43:30.611Z,24.40
2022-12-19T00:47:33.797Z,23.10
2022-12-19T00:51:38.641Z,9.15
2022-12-19T00:55:45.023Z,8.23
2022-12-19T00:59:49.613Z,20.23
2022-12-19T01:08:18.731Z,14.35
2022-12-19T01:12:39.813Z,22.38
2022-12-19T01:16:44.483Z,18.15
2022-12-19T01:20:47.971Z,24.05
2022-12-19T01:24:51.076Z,23.27
2022-12-19T01:28:54.180Z,20.67
2022-12-19T01:32:59.285Z,14.27
2022-12-19T01:37:03.725Z,11.18
2022-12-19T01:41:07.413Z,13.38
2022-12-19T01:45:34.330Z,17.70
2022-12-19T01:49:39.692Z,10.73
2022-12-19T01:53:49.431Z,19.30
2022-12-19T01:57:53.669Z,18.48
2022-12-19T02:02:03.701Z,9.68
2022-12-19T02:06:10.040Z,19.75
2022-12-19T02:10:13.403Z,17.48
2022-12-19T02:14:16.964Z,13.45
2022-12-19T02:18:34.299Z,11.00
2022-12-19T02:22:53.113Z,16.60
2022-12-19T02:27:13.573Z,11.65
2022-12-19T02:31:23.451Z,13.75
2022-12-19T02:35:37.876Z,12.93
2022-12-19T02:39:46.751Z,19.05
2022-12-19T02:43:58.699Z,11.07
2022-12-19T02:48:08.996Z,13.40
2022-12-19T02:52:34.569Z,20.90
2022-12-19T02:56:49.323Z,15.02
2022-12-19T03:01:01.166Z,15.93
2022-12-19T03:05:13.593Z,24.40
2022-12-19T03:09:26.031Z,12.73
2022-12-19T03:13:32.309Z,10.30
2022-12-19T03:17:39.473Z,18.52
2022-12-19T03:21:46.374Z,21.60
2022-12-19T03:25:53.510Z,18.52
2022-12-19T03:30:03.120Z,20.80
2022-12-19T03:34:11.869Z,18.88
2022-12-19T03:38:19.220Z,18.50
2022-12-19T03:42:43.993Z,14.75
2022-12-19T03:46:53.500Z,20.50
2022-12-19T03:51:07.794Z,13.07
2022-12-19T03:55:17.773Z,12.85
2022-12-19T03:59:28.432Z,15.93
2022-12-19T04:03:33.072Z,17.35
2022-12-19T04:07:37.707Z,19.70
2022-12-19T04:11:48.918Z,15.18
2022-12-19T04:16:00.121Z,16.63
2022-12-19T04:20:06.264Z,18.02
2022-12-19T04:24:14.809Z,11.27
2022-12-19T04:28:26.397Z,16.95
2022-12-19T04:32:34.053Z,22.13
2022-12-19T04:36:37.416Z,17.35
2022-12-19T04:40:41.734Z,15.80
2022-12-19T04:44:46.342Z,22.42
2022-12-19T04:48:49.508Z,19.40
2022-12-19T04:52:56.993Z,15.50
2022-12-19T04:57:00.562Z,16.70
2022-12-19T05:01:05.730Z,19.50
2022-12-19T05:05:10.056Z,15.43
2022-12-19T05:09:13.296Z,14.25
2022-12-19T05:13:16.397Z,16.13
2022-12-19T05:17:21.043Z,19.50
2022-12-19T05:21:24.431Z,20.98
2022-12-19T05:25:28.604Z,18.33
2022-12-19T05:29:31.669Z,12.07
2022-12-19T05:33:36.516Z,13.00
2022-12-19T05:37:39.705Z,17.73
2022-12-19T05:41:46.391Z,14.15
2022-12-19T05:45:52.030Z,17.38
2022-12-19T05:49:56.548Z,15.52
2022-12-19T05:54:01.723Z,15.55
2022-12-19T05:58:05.068Z,30.85
2022-12-19T06:02:08.476Z,17.77
2022-12-19T06:06:14.662Z,15.00
2022-12-19T06:10:17.933Z,19.05
2022-12-19T06:14:21.256Z,20.73
2022-12-19T06:18:24.495Z,16.42
2022-12-19T06:22:29.377Z,18.75
2022-12-19T06:26:32.753Z,17.00
2022-12-19T06:30:36.001Z,57.90
2022-12-19T06:35:03.283Z,12.95
2022-12-19T06:39:04.990Z,10.95
2022-12-19T06:43:08.088Z,13.50
2022-12-19T06:47:11.404Z,12.73
2022-12-19T06:51:14.571Z,16.08
2022-12-19T06:55:19.237Z,19.70
2022-12-19T06:59:22.425Z,8.43
2022-12-19T07:03:31.441Z,6.75
2022-12-19T07:07:35.229Z,6.35
2022-12-19T07:11:39.731Z,3.20
2022-12-19T07:15:43.095Z,15.38
2022-12-19T07:19:46.650Z,7.78
2022-12-19T07:23:50.319Z,4.13
2022-12-19T07:27:54.851Z,2.03
2022-12-19T07:31:58.067Z,6.00
2022-12-19T07:36:01.649Z,3.28
2022-12-19T07:40:05.398Z,6.95
2022-12-19T07:44:10.241Z,3.70
2022-12-19T07:48:13.456Z,4.38
2022-12-19T07:52:16.686Z,4.32
2022-12-19T07:56:19.855Z,4.75
2022-12-19T08:00:24.669Z,6.53
2022-12-19T08:04:27.897Z,42.50
2022-12-19T08:08:31.305Z,7.28
2022-12-19T08:12:35.427Z,5.50
2022-12-19T08:17:11.116Z,4.05
2022-12-19T08:21:03.559Z,3.78
2022-12-19T08:25:08.152Z,4.88
2022-12-19T08:29:13.436Z,7.65
2022-12-19T08:33:18.223Z,4.43
2022-12-19T08:37:21.746Z,3.53
2022-12-19T08:41:25.020Z,6.00
2022-12-19T08:45:28.258Z,3.83
2022-12-19T08:49:32.958Z,3.97
2022-12-19T08:53:38.578Z,1.98
2022-12-19T08:57:41.762Z,5.15
2022-12-19T09:01:45.212Z,3.17
2022-12-19T09:06:03.700Z,4.07
2022-12-19T09:10:10.689Z,12.57
2022-12-19T09:14:13.865Z,5.72
2022-12-19T09:18:18.834Z,3.72
2022-12-19T09:22:27.778Z,2.60
2022-12-19T09:26:33.661Z,3.83
2022-12-19T09:30:37.474Z,3.92
2022-12-19T09:34:40.802Z,4.35
2022-12-19T09:38:45.945Z,4.50
2022-12-19T09:43:02.579Z,3.63
2022-12-19T09:47:11.973Z,3.80
2022-12-19T09:51:21.788Z,2.30
2022-12-19T09:55:33.845Z,2.63
2022-12-19T09:59:49.383Z,3.15
2022-12-19T10:03:59.426Z,2.92
2022-12-19T10:08:09.191Z,0.63
2022-12-19T10:12:43.723Z,3.60
2022-12-19T10:17:23.588Z,3.85
2022-12-19T10:22:15.780Z,3.90
2022-12-19T10:26:04.346Z,6.68
2022-12-19T10:30:16.972Z,3.70
2022-12-19T10:34:22.782Z,2.95
2022-12-19T10:38:32.350Z,4.88
2022-12-19T10:42:50.459Z,2.88
2022-12-19T10:46:55.109Z,16.10
2022-12-19T10:50:58.297Z,4.45
2022-12-19T10:55:03.960Z,4.95
2022-12-19T10:59:18.284Z,5.20
2022-12-19T11:03:23.753Z,2.58
2022-12-19T11:07:27.160Z,2.78
2022-12-19T11:15:57.053Z,13.02
2022-12-19T11:19:28.772Z,4.90
2022-12-19T11:29:19.482Z,0.90
2022-12-19T11:30:08.658Z,2.90
2022-12-19T11:33:48.824Z,3.88
2022-12-19T11:37:56.341Z,3.58
2022-12-19T11:42:06.986Z,2.25
2022-12-19T11:46:21.704Z,5.22
2022-12-19T11:50:28.798Z,1.75
2022-12-19T11:54:37.802Z,1.63
2022-12-19T11:58:43.377Z,6.32
2022-12-19T12:03:05.940Z,3.47
2022-12-19T12:07:28.126Z,11.80
2022-12-19T12:16:33.753Z,4.90
2022-12-19T12:31:09.556Z,4.35
2022-12-19T12:31:10.768Z,3.78
2022-12-19T12:31:44.252Z,7.03
2022-12-19T12:31:47.318Z,3.63
2022-12-19T12:35:51.348Z,4.25
2022-12-19T12:39:25.536Z,5.97
2022-12-19T12:43:45.296Z,5.70
2022-12-19T12:47:53.536Z,6.15
2022-12-19T12:51:57.455Z,4.20
2022-12-19T12:56:02.987Z,8.52
2022-12-19T13:00:20.439Z,4.18
2022-12-19T13:04:32.637Z,8.23
2022-12-19T13:08:40.451Z,9.43
2022-12-19T13:13:00.951Z,6.32
2022-12-19T13:17:05.681Z,4.35
2022-12-19T13:21:11.128Z,9.00
2022-12-19T13:25:52.150Z,2.72
2022-12-19T13:30:03.906Z,6.70
2022-12-19T13:34:19.924Z,6.35
2022-12-19T13:39:57.712Z,8.63
2022-12-19T13:43:15.918Z,3.45
2022-12-19T13:47:23.785Z,10.13
2022-12-19T13:51:27.272Z,4.43
2022-12-19T13:55:32.027Z,4.70
2022-12-19T13:59:39.965Z,8.70
2022-12-19T14:03:46.274Z,6.80
2022-12-19T14:07:51.877Z,5.07
2022-12-19T14:13:41.082Z,4.32
2022-12-19T14:16:39.749Z,3.13
2022-12-19T14:22:09.608Z,2.15
2022-12-19T14:28:15.413Z,1.90
2022-12-19T14:30:27.401Z,2.10
2022-12-19T14:39:26.316Z,2.40
2022-12-19T14:43:59.366Z,2.58
2022-12-19T14:54:17.438Z,0.98
2022-12-19T14:54:35.866Z,2.97
2022-12-19T14:57:03.899Z,2.25
2022-12-19T15:01:23.943Z,1.15
2022-12-19T15:05:30.645Z,1.35
2022-12-19T15:11:04.922Z,1.77
2022-12-19T15:14:51.285Z,2.60
2022-12-19T15:18:38.343Z,4.85
2022-12-19T15:22:43.690Z,2.67
2022-12-19T15:26:49.338Z,2.70
2022-12-19T15:30:57.676Z,3.13
2022-12-19T15:35:01.087Z,1.77
2022-12-19T15:39:05.716Z,2.25
2022-12-19T15:43:18.752Z,2.60
2022-12-19T15:47:35.228Z,3.53
2022-12-19T15:51:38.372Z,4.22
2022-12-19T15:55:43.923Z,3.80
2022-12-19T15:59:47.427Z,4.03
2022-12-19T16:03:51.451Z,1.85
2022-12-19T16:07:54.943Z,4.45
2022-12-19T16:12:00.139Z,8.68
2022-12-19T16:16:11.071Z,1.73
2022-12-19T16:20:20.439Z,3.60
2022-12-19T16:24:24.117Z,2.15
2022-12-19T16:28:32.288Z,3.17
2022-12-19T16:32:35.414Z,7.07
2022-12-19T16:36:38.681Z,2.33
2022-12-19T16:40:44.367Z,3.65
2022-12-19T16:44:50.016Z,3.78
2022-12-19T16:48:53.266Z,4.00
2022-12-19T16:52:57.604Z,2.97
2022-12-19T16:57:00.916Z,7.80
2022-12-19T17:01:07.906Z,4.72
2022-12-19T17:05:23.622Z,2.17
2022-12-19T17:09:26.927Z,3.67
2022-12-19T17:13:30.378Z,2.67
2022-12-19T17:17:35.103Z,3.35
2022-12-19T17:21:39.457Z,2.95
2022-12-19T17:25:42.996Z,4.75
2022-12-19T17:29:47.388Z,8.73
2022-12-19T17:33:52.174Z,3.08
2022-12-19T17:37:56.814Z,4.70
2022-12-19T17:42:02.499Z,4.93
2022-12-19T17:46:06.071Z,2.03
2022-12-19T17:50:21.515Z,1.83
2022-12-19T17:54:25.243Z,3.25
2022-12-19T17:58:29.861Z,2.30
2022-12-19T18:02:34.925Z,3.35
2022-12-19T18:06:39.525Z,19.40
2022-12-19T18:10:42.816Z,5.43
2022-12-19T18:14:46.138Z,6.60
2022-12-19T18:18:49.887Z,2.33
2022-12-19T18:22:55.265Z,2.20
2022-12-19T18:26:59.136Z,5.75
2022-12-19T18:31:07.975Z,1.58
2022-12-19T18:35:16.833Z,4.78
2022-12-19T18:39:23.635Z,4.15
2022-12-19T18:43:27.458Z,3.10
2022-12-19T18:47:30.811Z,2.70
2022-12-19T18:51:34.250Z,2.25
2022-12-19T18:55:38.988Z,4.45
2022-12-19T18:59:42.211Z,1.77
2022-12-19T19:03:53.352Z,1.88
2022-12-19T19:08:00.392Z,2.53
2022-12-19T19:12:06.210Z,0.52
2022-12-19T19:16:18.359Z,3.17
2022-12-19T19:20:21.613Z,4.57
2022-12-19T19:24:24.897Z,2.30
2022-12-19T19:28:29.476Z,3.38
2022-12-19T19:32:33.665Z,3.33
2022-12-19T19:36:39.676Z,2.58
2022-12-19T19:40:43.451Z,2.08
2022-12-19T19:44:47.917Z,1.65
2022-12-19T19:48:51.296Z,1.65
2022-12-19T19:52:54.446Z,1.10
2022-12-19T19:56:57.625Z,1.38
2022-12-19T20:01:07.371Z,0.93
2022-12-19T20:05:11.820Z,2.08
2022-12-19T20:09:15.107Z,2.53
2022-12-19T20:13:18.387Z,0.50
2022-12-19T20:17:23.121Z,1.52
2022-12-19T20:21:26.437Z,1.30
2022-12-19T20:25:29.825Z,1.00
2022-12-19T20:29:33.067Z,5.75
2022-12-19T20:33:37.692Z,2.97
2022-12-19T20:37:40.973Z,2.03
2022-12-19T20:41:44.249Z,2.67
2022-12-19T20:45:47.493Z,1.35
2022-12-19T20:49:52.378Z,4.53
2022-12-19T20:53:55.654Z,4.00
2022-12-19T20:57:58.915Z,1.15
2022-12-19T21:02:02.711Z,3.63
2022-12-19T21:06:09.359Z,2.00
2022-12-19T21:10:12.511Z,1.85
2022-12-19T21:14:15.646Z,2.97
2022-12-19T21:18:18.896Z,1.10
2022-12-19T21:22:23.454Z,2.25
2022-12-19T21:26:26.999Z,4.10
2022-12-19T21:30:30.176Z,3.30
2022-12-19T21:34:33.389Z,1.63
2022-12-19T21:38:38.792Z,2.05
2022-12-19T21:42:41.892Z,2.30
2022-12-19T21:46:45.173Z,1.15
2022-12-19T21:50:56.405Z,1.38
2022-12-19T21:55:00.917Z,0.52
2022-12-19T21:59:06.173Z,3.38
2022-12-19T22:03:14.907Z,2.88
2022-12-19T22:07:18.169Z,1.98
2022-12-19T22:11:23.167Z,0.93
2022-12-19T22:15:26.329Z,2.85
2022-12-19T22:19:29.545Z,1.77
2022-12-19T22:23:32.941Z,1.42
2022-12-19T22:27:37.539Z,2.92
2022-12-19T22:31:41.321Z,1.20
2022-12-19T22:35:44.625Z,0.55
2022-12-19T22:39:47.735Z,1.08
2022-12-19T22:43:54.646Z,5.18
2022-12-19T22:47:57.800Z,0.75
2022-12-19T22:52:00.880Z,0.63
2022-12-19T22:56:06.439Z,1.83
2022-12-19T23:00:14.143Z,1.98
2022-12-19T23:04:17.723Z,1.15
2022-12-19T23:08:21.237Z,0.70
2022-12-19T23:12:24.352Z,2.60
2022-12-19T23:16:29.018Z,0.88
2022-12-19T23:20:32.405Z,1.30
2022-12-19T23:24:35.618Z,2.10
2022-12-19T23:28:38.969Z,2.03
2022-12-19T23:32:50.340Z,0.93
2022-12-19T23:37:10.681Z,1.17
2022-12-19T23:41:16.851Z,1.33
2022-12-19T23:45:20.138Z,2.55
2022-12-19T23:49:25.253Z,1.15
2022-12-19T23:53:29.263Z,1.65
2022-12-19T23:57:32.624Z,0.50
